sensor_id;sensor_type;location;lat;lon;timestamp;P1;durP1;ratioP1;P2;durP2;ratioP2
84135;SDS011;74238;50.566;7.262;2024-03-08T00:00:00;20.80;;;11.15;;
84135;SDS011;74238;50.566;7.262;2024-03-08T00:02:34;15.25;;;10.77;;
84135;SDS011;74238;50.566;7.262;2024-03-08T00:05:12;19.13;;;11.48;;
84135;SDS011;74238;50.566;7.262;2024-03-08T00:10:08;20.98;;;11.60;;
84135;SDS011;74238;50.566;7.262;2024-03-08T00:12:36;18.45;;;11.35;;
84135;SDS011;74238;50.566;7.262;2024-03-08T00:15:02;21.08;;;11.85;;
84135;SDS011;74238;50.566;7.262;2024-03-08T00:17:27;19.60;;;11.45;;
84135;SDS011;74238;50.566;7.262;2024-03-08T00:19:53;20.90;;;12.57;;
84135;SDS011;74238;50.566;7.262;2024-03-08T00:22:19;22.13;;;11.10;;
84135;SDS011;74238;50.566;7.262;2024-03-08T00:24:44;26.38;;;11.30;;
84135;SDS011;74238;50.566;7.262;2024-03-08T00:27:10;20.20;;;11.68;;
84135;SDS011;74238;50.566;7.262;2024-03-08T00:29:36;19.83;;;10.80;;
84135;SDS011;74238;50.566;7.262;2024-03-08T00:32:03;20.67;;;11.63;;
84135;SDS011;74238;50.566;7.262;2024-03-08T00:34:29;18.88;;;11.25;;
84135;SDS011;74238;50.566;7.262;2024-03-08T00:36:54;18.53;;;10.77;;
84135;SDS011;74238;50.566;7.262;2024-03-08T00:39:19;18.97;;;10.83;;
84135;SDS011;74238;50.566;7.262;2024-03-08T00:41:46;17.55;;;11.13;;
84135;SDS011;74238;50.566;7.262;2024-03-08T00:44:12;19.40;;;11.75;;
84135;SDS011;74238;50.566;7.262;2024-03-08T00:46:37;20.08;;;11.50;;
84135;SDS011;74238;50.566;7.262;2024-03-08T00:49:03;21.10;;;11.48;;
84135;SDS011;74238;50.566;7.262;2024-03-08T00:51:28;16.65;;;10.88;;
84135;SDS011;74238;50.566;7.262;2024-03-08T00:53:54;18.70;;;11.63;;
84135;SDS011;74238;50.566;7.262;2024-03-08T00:56:19;20.92;;;11.70;;
84135;SDS011;74238;50.566;7.262;2024-03-08T00:58:44;21.20;;;10.67;;
84135;SDS011;74238;50.566;7.262;2024-03-08T01:01:10;21.10;;;11.93;;
84135;SDS011;74238;50.566;7.262;2024-03-08T01:03:35;19.42;;;11.82;;
84135;SDS011;74238;50.566;7.262;2024-03-08T01:06:01;22.63;;;12.00;;
84135;SDS011;74238;50.566;7.262;2024-03-08T01:08:27;18.50;;;11.10;;
84135;SDS011;74238;50.566;7.262;2024-03-08T01:10:53;21.35;;;12.05;;
84135;SDS011;74238;50.566;7.262;2024-03-08T01:13:18;20.98;;;12.25;;
84135;SDS011;74238;50.566;7.262;2024-03-08T01:15:44;21.48;;;11.98;;
84135;SDS011;74238;50.566;7.262;2024-03-08T01:18:10;22.98;;;11.10;;
84135;SDS011;74238;50.566;7.262;2024-03-08T01:20:35;22.98;;;12.13;;
84135;SDS011;74238;50.566;7.262;2024-03-08T01:23:01;22.83;;;12.85;;
84135;SDS011;74238;50.566;7.262;2024-03-08T01:25:26;20.75;;;12.27;;
84135;SDS011;74238;50.566;7.262;2024-03-08T01:27:52;21.17;;;11.93;;
84135;SDS011;74238;50.566;7.262;2024-03-08T01:32:44;18.92;;;11.60;;
84135;SDS011;74238;50.566;7.262;2024-03-08T01:35:09;19.65;;;12.40;;
84135;SDS011;74238;50.566;7.262;2024-03-08T01:37:35;17.98;;;10.85;;
84135;SDS011;74238;50.566;7.262;2024-03-08T01:40:01;21.17;;;11.27;;
84135;SDS011;74238;50.566;7.262;2024-03-08T01:42:27;17.67;;;11.38;;
84135;SDS011;74238;50.566;7.262;2024-03-08T01:44:53;21.00;;;11.75;;
84135;SDS011;74238;50.566;7.262;2024-03-08T01:47:19;22.02;;;12.32;;
84135;SDS011;74238;50.566;7.262;2024-03-08T01:49:47;20.40;;;11.60;;
84135;SDS011;74238;50.566;7.262;2024-03-08T01:52:16;21.73;;;11.35;;
84135;SDS011;74238;50.566;7.262;2024-03-08T01:54:44;24.08;;;11.70;;
84135;SDS011;74238;50.566;7.262;2024-03-08T01:57:10;21.50;;;12.07;;
84135;SDS011;74238;50.566;7.262;2024-03-08T01:59:36;19.45;;;11.90;;
84135;SDS011;74238;50.566;7.262;2024-03-08T02:02:02;20.98;;;12.32;;
84135;SDS011;74238;50.566;7.262;2024-03-08T02:04:31;20.48;;;11.82;;
84135;SDS011;74238;50.566;7.262;2024-03-08T02:06:56;20.42;;;12.32;;
84135;SDS011;74238;50.566;7.262;2024-03-08T02:11:49;22.60;;;11.77;;
84135;SDS011;74238;50.566;7.262;2024-03-08T02:14:15;19.15;;;11.18;;
84135;SDS011;74238;50.566;7.262;2024-03-08T02:16:40;23.57;;;11.53;;
84135;SDS011;74238;50.566;7.262;2024-03-08T02:19:05;23.10;;;12.13;;
84135;SDS011;74238;50.566;7.262;2024-03-08T02:21:34;18.67;;;11.00;;
84135;SDS011;74238;50.566;7.262;2024-03-08T02:24:01;20.05;;;10.05;;
84135;SDS011;74238;50.566;7.262;2024-03-08T02:26:26;20.77;;;10.90;;
84135;SDS011;74238;50.566;7.262;2024-03-08T02:28:52;22.67;;;10.65;;
84135;SDS011;74238;50.566;7.262;2024-03-08T02:31:17;19.48;;;11.43;;
84135;SDS011;74238;50.566;7.262;2024-03-08T02:33:43;22.58;;;12.45;;
84135;SDS011;74238;50.566;7.262;2024-03-08T02:36:08;22.92;;;12.00;;
84135;SDS011;74238;50.566;7.262;2024-03-08T02:38:34;23.48;;;11.13;;
84135;SDS011;74238;50.566;7.262;2024-03-08T02:40:59;21.25;;;11.60;;
84135;SDS011;74238;50.566;7.262;2024-03-08T02:43:24;21.50;;;12.80;;
84135;SDS011;74238;50.566;7.262;2024-03-08T02:45:50;21.33;;;12.85;;
84135;SDS011;74238;50.566;7.262;2024-03-08T02:48:17;19.77;;;12.02;;
84135;SDS011;74238;50.566;7.262;2024-03-08T02:50:43;21.35;;;12.93;;
84135;SDS011;74238;50.566;7.262;2024-03-08T02:53:10;21.95;;;12.23;;
84135;SDS011;74238;50.566;7.262;2024-03-08T02:55:37;23.55;;;11.85;;
84135;SDS011;74238;50.566;7.262;2024-03-08T02:58:03;22.13;;;12.38;;
84135;SDS011;74238;50.566;7.262;2024-03-08T03:00:29;19.70;;;12.25;;
84135;SDS011;74238;50.566;7.262;2024-03-08T03:02:56;23.65;;;11.82;;
84135;SDS011;74238;50.566;7.262;2024-03-08T03:05:22;20.45;;;11.82;;
84135;SDS011;74238;50.566;7.262;2024-03-08T03:07:48;21.17;;;11.98;;
84135;SDS011;74238;50.566;7.262;2024-03-08T03:10:14;22.02;;;11.45;;
84135;SDS011;74238;50.566;7.262;2024-03-08T03:12:44;21.77;;;12.20;;
84135;SDS011;74238;50.566;7.262;2024-03-08T03:15:11;21.77;;;12.00;;
84135;SDS011;74238;50.566;7.262;2024-03-08T03:17:39;21.67;;;13.80;;
84135;SDS011;74238;50.566;7.262;2024-03-08T03:20:08;22.92;;;11.98;;
84135;SDS011;74238;50.566;7.262;2024-03-08T03:22:38;23.48;;;12.70;;
84135;SDS011;74238;50.566;7.262;2024-03-08T03:25:06;23.00;;;12.45;;
84135;SDS011;74238;50.566;7.262;2024-03-08T03:27:32;23.88;;;12.43;;
84135;SDS011;74238;50.566;7.262;2024-03-08T03:29:58;23.65;;;12.52;;
84135;SDS011;74238;50.566;7.262;2024-03-08T03:35:12;21.20;;;12.23;;
84135;SDS011;74238;50.566;7.262;2024-03-08T03:37:37;20.85;;;11.90;;
84135;SDS011;74238;50.566;7.262;2024-03-08T03:40:05;21.52;;;11.20;;
84135;SDS011;74238;50.566;7.262;2024-03-08T03:42:30;20.60;;;12.45;;
84135;SDS011;74238;50.566;7.262;2024-03-08T03:44:56;25.88;;;13.95;;
84135;SDS011;74238;50.566;7.262;2024-03-08T03:47:21;21.98;;;11.98;;
84135;SDS011;74238;50.566;7.262;2024-03-08T03:49:47;23.25;;;12.05;;
84135;SDS011;74238;50.566;7.262;2024-03-08T03:52:12;22.50;;;11.32;;
84135;SDS011;74238;50.566;7.262;2024-03-08T03:54:37;22.27;;;12.38;;
84135;SDS011;74238;50.566;7.262;2024-03-08T03:57:03;22.63;;;11.82;;
84135;SDS011;74238;50.566;7.262;2024-03-08T03:59:29;22.98;;;12.23;;
84135;SDS011;74238;50.566;7.262;2024-03-08T04:01:54;22.45;;;12.27;;
84135;SDS011;74238;50.566;7.262;2024-03-08T04:04:20;22.80;;;12.27;;
84135;SDS011;74238;50.566;7.262;2024-03-08T04:06:46;24.65;;;13.35;;
84135;SDS011;74238;50.566;7.262;2024-03-08T04:09:11;19.63;;;11.73;;
84135;SDS011;74238;50.566;7.262;2024-03-08T04:11:37;22.95;;;12.45;;
84135;SDS011;74238;50.566;7.262;2024-03-08T04:14:03;24.00;;;13.00;;
84135;SDS011;74238;50.566;7.262;2024-03-08T04:18:55;17.23;;;10.43;;
84135;SDS011;74238;50.566;7.262;2024-03-08T04:21:20;21.07;;;11.20;;
84135;SDS011;74238;50.566;7.262;2024-03-08T04:23:45;18.25;;;10.73;;
84135;SDS011;74238;50.566;7.262;2024-03-08T04:26:11;21.47;;;10.37;;
84135;SDS011;74238;50.566;7.262;2024-03-08T04:28:36;23.65;;;13.35;;
84135;SDS011;74238;50.566;7.262;2024-03-08T04:31:02;24.67;;;12.95;;
84135;SDS011;74238;50.566;7.262;2024-03-08T04:33:28;27.13;;;12.82;;
84135;SDS011;74238;50.566;7.262;2024-03-08T04:35:53;23.15;;;12.70;;
84135;SDS011;74238;50.566;7.262;2024-03-08T04:38:19;20.87;;;11.63;;
84135;SDS011;74238;50.566;7.262;2024-03-08T04:40:44;22.60;;;13.07;;
84135;SDS011;74238;50.566;7.262;2024-03-08T04:43:11;23.35;;;12.90;;
84135;SDS011;74238;50.566;7.262;2024-03-08T04:45:37;22.23;;;13.15;;
84135;SDS011;74238;50.566;7.262;2024-03-08T04:48:02;27.15;;;13.48;;
84135;SDS011;74238;50.566;7.262;2024-03-08T04:50:27;22.15;;;12.45;;
84135;SDS011;74238;50.566;7.262;2024-03-08T04:52:56;25.30;;;12.85;;
84135;SDS011;74238;50.566;7.262;2024-03-08T04:55:21;22.58;;;12.63;;
84135;SDS011;74238;50.566;7.262;2024-03-08T04:57:47;20.48;;;12.15;;
84135;SDS011;74238;50.566;7.262;2024-03-08T05:00:13;19.65;;;11.68;;
84135;SDS011;74238;50.566;7.262;2024-03-08T05:05:05;23.70;;;12.57;;
84135;SDS011;74238;50.566;7.262;2024-03-08T05:07:31;20.77;;;11.35;;
84135;SDS011;74238;50.566;7.262;2024-03-08T05:09:57;21.23;;;12.35;;
84135;SDS011;74238;50.566;7.262;2024-03-08T05:12:23;25.58;;;13.50;;
84135;SDS011;74238;50.566;7.262;2024-03-08T05:14:48;22.55;;;13.82;;
84135;SDS011;74238;50.566;7.262;2024-03-08T05:17:14;23.40;;;13.27;;
84135;SDS011;74238;50.566;7.262;2024-03-08T05:19:40;26.95;;;13.23;;
84135;SDS011;74238;50.566;7.262;2024-03-08T05:22:05;23.00;;;12.52;;
84135;SDS011;74238;50.566;7.262;2024-03-08T05:24:31;26.02;;;14.82;;
84135;SDS011;74238;50.566;7.262;2024-03-08T05:26:56;26.05;;;13.75;;
84135;SDS011;74238;50.566;7.262;2024-03-08T05:29:21;24.13;;;12.98;;
84135;SDS011;74238;50.566;7.262;2024-03-08T05:31:48;22.90;;;13.65;;
84135;SDS011;74238;50.566;7.262;2024-03-08T05:34:15;22.30;;;11.95;;
84135;SDS011;74238;50.566;7.262;2024-03-08T05:36:42;20.38;;;12.68;;
84135;SDS011;74238;50.566;7.262;2024-03-08T05:39:12;25.98;;;14.13;;
84135;SDS011;74238;50.566;7.262;2024-03-08T05:41:38;23.92;;;13.30;;
84135;SDS011;74238;50.566;7.262;2024-03-08T05:44:05;21.92;;;12.95;;
84135;SDS011;74238;50.566;7.262;2024-03-08T05:46:30;24.65;;;12.85;;
84135;SDS011;74238;50.566;7.262;2024-03-08T05:48:56;26.80;;;13.60;;
84135;SDS011;74238;50.566;7.262;2024-03-08T05:51:23;23.00;;;13.32;;
84135;SDS011;74238;50.566;7.262;2024-03-08T05:53:49;27.60;;;13.90;;
84135;SDS011;74238;50.566;7.262;2024-03-08T05:56:14;25.60;;;12.68;;
84135;SDS011;74238;50.566;7.262;2024-03-08T05:58:39;22.35;;;12.38;;
84135;SDS011;74238;50.566;7.262;2024-03-08T06:01:05;21.85;;;12.00;;
84135;SDS011;74238;50.566;7.262;2024-03-08T06:03:33;21.80;;;12.88;;
84135;SDS011;74238;50.566;7.262;2024-03-08T06:05:59;25.42;;;12.82;;
84135;SDS011;74238;50.566;7.262;2024-03-08T06:08:24;26.55;;;13.43;;
84135;SDS011;74238;50.566;7.262;2024-03-08T06:10:54;25.08;;;12.60;;
84135;SDS011;74238;50.566;7.262;2024-03-08T06:13:20;30.77;;;14.05;;
84135;SDS011;74238;50.566;7.262;2024-03-08T06:15:45;22.93;;;13.50;;
84135;SDS011;74238;50.566;7.262;2024-03-08T06:18:12;23.92;;;13.68;;
84135;SDS011;74238;50.566;7.262;2024-03-08T06:20:37;22.90;;;13.95;;
84135;SDS011;74238;50.566;7.262;2024-03-08T06:23:02;23.95;;;13.15;;
84135;SDS011;74238;50.566;7.262;2024-03-08T06:25:28;29.13;;;14.60;;
84135;SDS011;74238;50.566;7.262;2024-03-08T06:27:53;28.92;;;13.73;;
84135;SDS011;74238;50.566;7.262;2024-03-08T06:30:18;22.93;;;13.50;;
84135;SDS011;74238;50.566;7.262;2024-03-08T06:32:46;23.58;;;13.43;;
84135;SDS011;74238;50.566;7.262;2024-03-08T06:35:11;26.13;;;13.88;;
84135;SDS011;74238;50.566;7.262;2024-03-08T06:37:37;24.65;;;12.80;;
84135;SDS011;74238;50.566;7.262;2024-03-08T06:40:02;25.58;;;13.63;;
84135;SDS011;74238;50.566;7.262;2024-03-08T06:42:28;24.77;;;12.35;;
84135;SDS011;74238;50.566;7.262;2024-03-08T06:44:54;24.27;;;12.10;;
84135;SDS011;74238;50.566;7.262;2024-03-08T06:47:24;25.13;;;13.60;;
84135;SDS011;74238;50.566;7.262;2024-03-08T06:49:50;24.33;;;13.48;;
84135;SDS011;74238;50.566;7.262;2024-03-08T06:52:16;27.25;;;13.77;;
84135;SDS011;74238;50.566;7.262;2024-03-08T06:54:42;24.85;;;13.60;;
84135;SDS011;74238;50.566;7.262;2024-03-08T06:57:08;24.50;;;13.27;;
84135;SDS011;74238;50.566;7.262;2024-03-08T06:59:35;24.63;;;12.93;;
84135;SDS011;74238;50.566;7.262;2024-03-08T07:02:01;21.65;;;11.93;;
84135;SDS011;74238;50.566;7.262;2024-03-08T07:04:27;23.88;;;13.18;;
84135;SDS011;74238;50.566;7.262;2024-03-08T07:06:54;21.92;;;14.27;;
84135;SDS011;74238;50.566;7.262;2024-03-08T07:09:23;24.15;;;14.05;;
84135;SDS011;74238;50.566;7.262;2024-03-08T07:11:49;24.77;;;13.57;;
84135;SDS011;74238;50.566;7.262;2024-03-08T07:14:19;25.33;;;13.60;;
84135;SDS011;74238;50.566;7.262;2024-03-08T07:16:48;26.70;;;14.70;;
84135;SDS011;74238;50.566;7.262;2024-03-08T07:19:14;27.23;;;15.35;;
84135;SDS011;74238;50.566;7.262;2024-03-08T07:21:40;24.17;;;14.60;;
84135;SDS011;74238;50.566;7.262;2024-03-08T07:24:06;25.35;;;13.68;;
84135;SDS011;74238;50.566;7.262;2024-03-08T07:26:52;24.92;;;13.70;;
84135;SDS011;74238;50.566;7.262;2024-03-08T07:29:18;24.75;;;13.73;;
84135;SDS011;74238;50.566;7.262;2024-03-08T07:31:43;26.17;;;13.93;;
84135;SDS011;74238;50.566;7.262;2024-03-08T07:34:27;24.50;;;12.95;;
84135;SDS011;74238;50.566;7.262;2024-03-08T07:36:56;24.63;;;13.88;;
84135;SDS011;74238;50.566;7.262;2024-03-08T07:39:22;24.80;;;13.43;;
84135;SDS011;74238;50.566;7.262;2024-03-08T07:41:48;24.67;;;13.45;;
84135;SDS011;74238;50.566;7.262;2024-03-08T07:44:14;26.48;;;13.35;;
84135;SDS011;74238;50.566;7.262;2024-03-08T07:46:39;25.52;;;13.80;;
84135;SDS011;74238;50.566;7.262;2024-03-08T07:49:06;25.42;;;13.85;;
84135;SDS011;74238;50.566;7.262;2024-03-08T07:51:31;26.25;;;13.88;;
84135;SDS011;74238;50.566;7.262;2024-03-08T07:53:56;23.80;;;13.37;;
84135;SDS011;74238;50.566;7.262;2024-03-08T07:56:22;24.58;;;13.70;;
84135;SDS011;74238;50.566;7.262;2024-03-08T07:58:47;27.45;;;13.73;;
84135;SDS011;74238;50.566;7.262;2024-03-08T08:01:17;27.77;;;14.48;;
84135;SDS011;74238;50.566;7.262;2024-03-08T08:03:43;29.00;;;15.27;;
84135;SDS011;74238;50.566;7.262;2024-03-08T08:06:09;25.98;;;14.20;;
84135;SDS011;74238;50.566;7.262;2024-03-08T08:08:35;25.02;;;14.32;;
84135;SDS011;74238;50.566;7.262;2024-03-08T08:11:00;25.17;;;14.82;;
84135;SDS011;74238;50.566;7.262;2024-03-08T08:13:27;28.13;;;14.82;;
84135;SDS011;74238;50.566;7.262;2024-03-08T08:15:57;28.38;;;14.90;;
84135;SDS011;74238;50.566;7.262;2024-03-08T08:18:22;28.52;;;14.65;;
84135;SDS011;74238;50.566;7.262;2024-03-08T08:20:50;23.73;;;13.55;;
84135;SDS011;74238;50.566;7.262;2024-03-08T08:23:15;27.33;;;14.18;;
84135;SDS011;74238;50.566;7.262;2024-03-08T08:25:40;30.47;;;13.90;;
84135;SDS011;74238;50.566;7.262;2024-03-08T08:28:06;26.70;;;14.10;;
84135;SDS011;74238;50.566;7.262;2024-03-08T08:30:31;26.47;;;14.40;;
84135;SDS011;74238;50.566;7.262;2024-03-08T08:32:57;32.20;;;14.30;;
84135;SDS011;74238;50.566;7.262;2024-03-08T08:35:25;31.20;;;14.63;;
84135;SDS011;74238;50.566;7.262;2024-03-08T08:37:51;27.63;;;13.07;;
84135;SDS011;74238;50.566;7.262;2024-03-08T08:40:17;26.10;;;14.43;;
84135;SDS011;74238;50.566;7.262;2024-03-08T08:42:44;24.73;;;13.45;;
84135;SDS011;74238;50.566;7.262;2024-03-08T08:47:36;30.30;;;13.65;;
84135;SDS011;74238;50.566;7.262;2024-03-08T08:50:02;24.23;;;14.30;;
84135;SDS011;74238;50.566;7.262;2024-03-08T08:52:29;26.67;;;12.93;;
84135;SDS011;74238;50.566;7.262;2024-03-08T08:54:55;22.58;;;12.68;;
84135;SDS011;74238;50.566;7.262;2024-03-08T08:57:21;21.63;;;12.35;;
84135;SDS011;74238;50.566;7.262;2024-03-08T08:59:47;25.40;;;12.73;;
84135;SDS011;74238;50.566;7.262;2024-03-08T09:02:14;25.25;;;14.90;;
84135;SDS011;74238;50.566;7.262;2024-03-08T09:04:39;24.13;;;13.40;;
84135;SDS011;74238;50.566;7.262;2024-03-08T09:07:04;23.73;;;12.90;;
84135;SDS011;74238;50.566;7.262;2024-03-08T09:09:31;26.38;;;13.15;;
84135;SDS011;74238;50.566;7.262;2024-03-08T09:11:57;23.55;;;14.10;;
84135;SDS011;74238;50.566;7.262;2024-03-08T09:14:22;20.30;;;12.98;;
84135;SDS011;74238;50.566;7.262;2024-03-08T09:16:47;18.50;;;11.37;;
84135;SDS011;74238;50.566;7.262;2024-03-08T09:19:13;21.65;;;11.18;;
84135;SDS011;74238;50.566;7.262;2024-03-08T09:21:38;19.70;;;11.35;;
84135;SDS011;74238;50.566;7.262;2024-03-08T09:24:05;21.67;;;11.43;;
84135;SDS011;74238;50.566;7.262;2024-03-08T09:26:31;20.08;;;10.48;;
84135;SDS011;74238;50.566;7.262;2024-03-08T09:31:23;19.80;;;10.35;;
84135;SDS011;74238;50.566;7.262;2024-03-08T09:33:48;22.40;;;10.05;;
84135;SDS011;74238;50.566;7.262;2024-03-08T09:36:14;18.85;;;11.30;;
84135;SDS011;74238;50.566;7.262;2024-03-08T09:38:39;19.27;;;11.30;;
84135;SDS011;74238;50.566;7.262;2024-03-08T09:41:05;15.85;;;9.50;;
84135;SDS011;74238;50.566;7.262;2024-03-08T09:43:30;22.02;;;10.52;;
84135;SDS011;74238;50.566;7.262;2024-03-08T09:45:56;19.05;;;10.95;;
84135;SDS011;74238;50.566;7.262;2024-03-08T09:48:22;20.40;;;10.95;;
84135;SDS011;74238;50.566;7.262;2024-03-08T09:50:48;20.92;;;11.50;;
84135;SDS011;74238;50.566;7.262;2024-03-08T09:53:14;19.33;;;9.13;;
84135;SDS011;74238;50.566;7.262;2024-03-08T09:55:40;15.57;;;9.13;;
84135;SDS011;74238;50.566;7.262;2024-03-08T09:58:07;17.60;;;11.45;;
84135;SDS011;74238;50.566;7.262;2024-03-08T10:00:54;21.60;;;9.38;;
84135;SDS011;74238;50.566;7.262;2024-03-08T10:03:22;16.63;;;9.48;;
84135;SDS011;74238;50.566;7.262;2024-03-08T10:05:48;16.85;;;10.02;;
84135;SDS011;74238;50.566;7.262;2024-03-08T10:08:14;16.90;;;8.88;;
84135;SDS011;74238;50.566;7.262;2024-03-08T10:10:39;14.57;;;8.90;;
84135;SDS011;74238;50.566;7.262;2024-03-08T10:13:05;17.75;;;9.18;;
84135;SDS011;74238;50.566;7.262;2024-03-08T10:15:31;16.55;;;10.32;;
84135;SDS011;74238;50.566;7.262;2024-03-08T10:17:58;16.58;;;9.27;;
84135;SDS011;74238;50.566;7.262;2024-03-08T10:20:23;15.20;;;8.73;;
84135;SDS011;74238;50.566;7.262;2024-03-08T10:22:49;15.93;;;9.60;;
84135;SDS011;74238;50.566;7.262;2024-03-08T10:25:14;13.52;;;8.27;;
84135;SDS011;74238;50.566;7.262;2024-03-08T10:27:40;14.88;;;9.00;;
84135;SDS011;74238;50.566;7.262;2024-03-08T10:30:08;15.07;;;9.35;;
84135;SDS011;74238;50.566;7.262;2024-03-08T10:32:37;16.70;;;8.65;;
84135;SDS011;74238;50.566;7.262;2024-03-08T10:35:04;15.20;;;8.75;;
84135;SDS011;74238;50.566;7.262;2024-03-08T10:37:30;15.07;;;9.40;;
84135;SDS011;74238;50.566;7.262;2024-03-08T10:40:04;15.25;;;9.50;;
84135;SDS011;74238;50.566;7.262;2024-03-08T10:42:35;15.50;;;9.18;;
84135;SDS011;74238;50.566;7.262;2024-03-08T10:45:19;15.30;;;9.98;;
84135;SDS011;74238;50.566;7.262;2024-03-08T10:48:03;12.70;;;8.48;;
84135;SDS011;74238;50.566;7.262;2024-03-08T10:50:37;14.88;;;8.68;;
84135;SDS011;74238;50.566;7.262;2024-03-08T10:53:03;16.88;;;8.70;;
84135;SDS011;74238;50.566;7.262;2024-03-08T10:55:31;17.73;;;8.40;;
84135;SDS011;74238;50.566;7.262;2024-03-08T10:57:58;14.95;;;8.48;;
84135;SDS011;74238;50.566;7.262;2024-03-08T11:00:25;19.90;;;8.88;;
84135;SDS011;74238;50.566;7.262;2024-03-08T11:02:53;14.05;;;8.88;;
84135;SDS011;74238;50.566;7.262;2024-03-08T11:08:24;13.93;;;8.07;;
84135;SDS011;74238;50.566;7.262;2024-03-08T11:10:49;14.68;;;8.35;;
84135;SDS011;74238;50.566;7.262;2024-03-08T11:13:34;14.70;;;8.30;;
84135;SDS011;74238;50.566;7.262;2024-03-08T11:16:01;14.20;;;8.27;;
84135;SDS011;74238;50.566;7.262;2024-03-08T11:18:31;11.95;;;7.93;;
84135;SDS011;74238;50.566;7.262;2024-03-08T11:20:58;14.25;;;8.38;;
84135;SDS011;74238;50.566;7.262;2024-03-08T11:23:23;13.85;;;8.27;;
84135;SDS011;74238;50.566;7.262;2024-03-08T11:25:50;13.48;;;8.27;;
84135;SDS011;74238;50.566;7.262;2024-03-08T11:28:20;11.93;;;7.10;;
84135;SDS011;74238;50.566;7.262;2024-03-08T11:33:23;13.07;;;7.05;;
84135;SDS011;74238;50.566;7.262;2024-03-08T11:35:51;12.20;;;6.95;;
84135;SDS011;74238;50.566;7.262;2024-03-08T11:38:17;12.50;;;7.57;;
84135;SDS011;74238;50.566;7.262;2024-03-08T11:40:46;10.48;;;7.18;;
84135;SDS011;74238;50.566;7.262;2024-03-08T11:43:15;14.60;;;7.40;;
84135;SDS011;74238;50.566;7.262;2024-03-08T11:45:41;10.82;;;6.65;;
84135;SDS011;74238;50.566;7.262;2024-03-08T11:48:06;11.30;;;6.70;;
84135;SDS011;74238;50.566;7.262;2024-03-08T11:50:32;12.63;;;6.97;;
84135;SDS011;74238;50.566;7.262;2024-03-08T11:53:04;12.23;;;7.18;;
84135;SDS011;74238;50.566;7.262;2024-03-08T11:55:30;11.82;;;6.82;;
84135;SDS011;74238;50.566;7.262;2024-03-08T11:58:03;10.13;;;7.03;;
84135;SDS011;74238;50.566;7.262;2024-03-08T12:00:29;12.45;;;7.78;;
84135;SDS011;74238;50.566;7.262;2024-03-08T12:03:06;13.13;;;7.22;;
84135;SDS011;74238;50.566;7.262;2024-03-08T12:05:34;12.02;;;7.07;;
84135;SDS011;74238;50.566;7.262;2024-03-08T12:08:01;13.40;;;7.95;;
84135;SDS011;74238;50.566;7.262;2024-03-08T12:10:27;10.60;;;6.85;;
84135;SDS011;74238;50.566;7.262;2024-03-08T12:12:53;12.57;;;7.07;;
84135;SDS011;74238;50.566;7.262;2024-03-08T12:15:20;10.98;;;6.80;;
84135;SDS011;74238;50.566;7.262;2024-03-08T12:17:48;12.98;;;8.00;;
84135;SDS011;74238;50.566;7.262;2024-03-08T12:20:19;13.07;;;7.32;;
84135;SDS011;74238;50.566;7.262;2024-03-08T12:22:49;11.40;;;7.03;;
84135;SDS011;74238;50.566;7.262;2024-03-08T12:25:21;11.55;;;6.70;;
84135;SDS011;74238;50.566;7.262;2024-03-08T12:27:47;11.13;;;6.65;;
84135;SDS011;74238;50.566;7.262;2024-03-08T12:30:17;12.27;;;7.10;;
84135;SDS011;74238;50.566;7.262;2024-03-08T12:32:59;12.63;;;6.93;;
84135;SDS011;74238;50.566;7.262;2024-03-08T12:35:26;12.40;;;7.40;;
84135;SDS011;74238;50.566;7.262;2024-03-08T12:37:54;11.65;;;7.60;;
84135;SDS011;74238;50.566;7.262;2024-03-08T12:40:27;14.80;;;8.10;;
84135;SDS011;74238;50.566;7.262;2024-03-08T12:42:54;10.85;;;7.15;;
84135;SDS011;74238;50.566;7.262;2024-03-08T12:45:20;11.45;;;7.35;;
84135;SDS011;74238;50.566;7.262;2024-03-08T12:47:56;13.45;;;8.25;;
84135;SDS011;74238;50.566;7.262;2024-03-08T12:50:21;10.30;;;7.25;;
84135;SDS011;74238;50.566;7.262;2024-03-08T12:55:14;11.00;;;7.05;;
84135;SDS011;74238;50.566;7.262;2024-03-08T12:57:41;12.85;;;6.97;;
84135;SDS011;74238;50.566;7.262;2024-03-08T13:00:07;10.90;;;6.30;;
84135;SDS011;74238;50.566;7.262;2024-03-08T13:02:37;11.23;;;6.65;;
84135;SDS011;74238;50.566;7.262;2024-03-08T13:05:03;13.18;;;7.45;;
84135;SDS011;74238;50.566;7.262;2024-03-08T13:09:56;13.18;;;7.30;;
84135;SDS011;74238;50.566;7.262;2024-03-08T13:12:25;9.88;;;6.70;;
84135;SDS011;74238;50.566;7.262;2024-03-08T13:14:50;10.65;;;6.72;;
84135;SDS011;74238;50.566;7.262;2024-03-08T13:17:15;10.98;;;7.45;;
84135;SDS011;74238;50.566;7.262;2024-03-08T13:19:43;10.63;;;7.15;;
84135;SDS011;74238;50.566;7.262;2024-03-08T13:22:09;11.98;;;7.43;;
84135;SDS011;74238;50.566;7.262;2024-03-08T13:24:39;10.70;;;7.30;;
84135;SDS011;74238;50.566;7.262;2024-03-08T13:27:06;11.27;;;6.90;;
84135;SDS011;74238;50.566;7.262;2024-03-08T13:29:41;11.65;;;7.50;;
84135;SDS011;74238;50.566;7.262;2024-03-08T13:34:36;10.05;;;6.43;;
84135;SDS011;74238;50.566;7.262;2024-03-08T13:37:01;15.52;;;7.18;;
84135;SDS011;74238;50.566;7.262;2024-03-08T13:39:28;12.73;;;7.35;;
84135;SDS011;74238;50.566;7.262;2024-03-08T13:41:56;11.98;;;8.00;;
84135;SDS011;74238;50.566;7.262;2024-03-08T13:44:21;11.07;;;6.63;;
84135;SDS011;74238;50.566;7.262;2024-03-08T13:46:47;12.73;;;7.60;;
84135;SDS011;74238;50.566;7.262;2024-03-08T13:51:38;13.45;;;7.40;;
84135;SDS011;74238;50.566;7.262;2024-03-08T13:54:03;13.40;;;7.72;;
84135;SDS011;74238;50.566;7.262;2024-03-08T13:56:31;12.23;;;7.72;;
84135;SDS011;74238;50.566;7.262;2024-03-08T13:58:57;12.13;;;8.25;;
84135;SDS011;74238;50.566;7.262;2024-03-08T14:01:22;10.82;;;7.55;;
84135;SDS011;74238;50.566;7.262;2024-03-08T14:03:48;10.70;;;6.90;;
84135;SDS011;74238;50.566;7.262;2024-03-08T14:06:13;14.18;;;7.82;;
84135;SDS011;74238;50.566;7.262;2024-03-08T14:08:38;15.35;;;7.72;;
84135;SDS011;74238;50.566;7.262;2024-03-08T14:11:04;12.85;;;7.32;;
84135;SDS011;74238;50.566;7.262;2024-03-08T14:13:43;8.82;;;6.90;;
84135;SDS011;74238;50.566;7.262;2024-03-08T14:16:10;11.63;;;7.20;;
84135;SDS011;74238;50.566;7.262;2024-03-08T14:18:36;11.25;;;7.15;;
84135;SDS011;74238;50.566;7.262;2024-03-08T14:21:02;9.98;;;6.45;;
84135;SDS011;74238;50.566;7.262;2024-03-08T14:23:29;10.27;;;6.38;;
84135;SDS011;74238;50.566;7.262;2024-03-08T14:25:54;12.15;;;7.22;;
84135;SDS011;74238;50.566;7.262;2024-03-08T14:28:19;13.65;;;7.90;;
84135;SDS011;74238;50.566;7.262;2024-03-08T14:30:45;11.80;;;7.27;;
84135;SDS011;74238;50.566;7.262;2024-03-08T14:33:10;16.42;;;9.50;;
84135;SDS011;74238;50.566;7.262;2024-03-08T14:35:35;13.48;;;8.10;;
84135;SDS011;74238;50.566;7.262;2024-03-08T14:38:01;13.38;;;7.97;;
84135;SDS011;74238;50.566;7.262;2024-03-08T14:40:27;15.23;;;8.38;;
84135;SDS011;74238;50.566;7.262;2024-03-08T14:42:53;13.05;;;7.55;;
84135;SDS011;74238;50.566;7.262;2024-03-08T14:45:18;15.23;;;8.75;;
84135;SDS011;74238;50.566;7.262;2024-03-08T14:47:45;12.80;;;7.75;;
84135;SDS011;74238;50.566;7.262;2024-03-08T14:50:15;15.02;;;8.52;;
84135;SDS011;74238;50.566;7.262;2024-03-08T14:52:44;10.88;;;7.22;;
84135;SDS011;74238;50.566;7.262;2024-03-08T14:55:16;11.40;;;7.40;;
84135;SDS011;74238;50.566;7.262;2024-03-08T14:57:44;13.20;;;8.73;;